createdAt,value
2022-09-12T00:00:25.535Z,101261.28
2022-09-12T00:02:27.591Z,101256.94
2022-09-12T00:04:29.467Z,101260.41
2022-09-12T00:06:34.255Z,101250.84
2022-09-12T00:08:36.342Z,101245.66
2022-09-12T00:10:44.174Z,101250.84
2022-09-12T00:12:45.964Z,101249.09
2022-09-12T00:14:47.764Z,101240.41
2022-09-12T00:16:49.809Z,101242.16
2022-09-12T00:18:52.895Z,101235.22
2022-09-12T00:20:54.655Z,101230.88
2022-09-12T00:22:56.537Z,101233.50
2022-09-12T00:24:58.573Z,101224.78
2022-09-12T00:27:00.356Z,101232.63
2022-09-12T00:29:02.175Z,101228.31
2022-09-12T00:31:07.235Z,101230.03
2022-09-12T00:33:10.135Z,101225.69
2022-09-12T00:35:12.194Z,101225.69
2022-09-12T00:37:14.254Z,101218.72
2022-09-12T00:39:17.456Z,101224.81
2022-09-12T00:41:29.494Z,101222.22
2022-09-12T00:43:42.255Z,101211.78
2022-09-12T00:45:44.837Z,101213.53
2022-09-12T00:47:47.075Z,101214.41
2022-09-12T00:49:58.354Z,101210.91
2022-09-12T00:52:06.075Z,101209.16
2022-09-12T00:54:12.667Z,101208.31
2022-09-12T00:56:17.675Z,101210.03
2022-09-12T00:58:25.955Z,101205.69
2022-09-12T01:00:29.658Z,101206.56
2022-09-12T01:02:31.526Z,101203.97
2022-09-12T01:04:37.435Z,101206.56
2022-09-12T01:06:42.117Z,101204.84
2022-09-12T01:08:46.980Z,101207.44
2022-09-12T01:10:49.925Z,101204.84
2022-09-12T01:12:51.855Z,101199.59
2022-09-12T01:14:53.701Z,101191.81
2022-09-12T01:16:55.585Z,101197.00
2022-09-12T01:19:15.365Z,101192.66
2022-09-12T01:21:38.461Z,101192.66
2022-09-12T01:24:01.566Z,101198.78
2022-09-12T01:26:21.647Z,101193.56
2022-09-12T01:28:37.883Z,101197.03
2022-09-12T01:30:44.866Z,101199.63
2022-09-12T01:33:05.906Z,101194.38
2022-09-12T01:35:16.985Z,101188.28
2022-09-12T01:37:28.567Z,101174.41
2022-09-12T01:39:43.202Z,101171.78
2022-09-12T01:41:54.747Z,101165.72
2022-09-12T01:44:13.797Z,101176.13
2022-09-12T01:46:19.501Z,101174.41
2022-09-12T01:48:42.130Z,101170.03
2022-09-12T01:50:51.502Z,101163.09
2022-09-12T01:53:01.783Z,101166.53
2022-09-12T01:55:20.174Z,101160.44
2022-09-12T01:57:30.134Z,101159.59
2022-09-12T01:59:47.729Z,101164.78
2022-09-12T02:01:59.125Z,101161.31
2022-09-12T02:04:21.380Z,101163.91
2022-09-12T02:06:31.336Z,101163.91
2022-09-12T02:08:43.911Z,101166.47
2022-09-12T02:10:52.840Z,101158.63
2022-09-12T02:15:11.904Z,101153.44
2022-09-12T02:17:18.749Z,101151.69
2022-09-12T02:19:24.958Z,101147.31
2022-09-12T02:21:29.075Z,101133.44
2022-09-12T02:23:34.227Z,101140.44
2022-09-12T02:25:42.571Z,101140.41
2022-09-12T02:27:49.795Z,101146.44
2022-09-12T02:29:52.520Z,101147.31
2022-09-12T02:32:00.335Z,101135.97
2022-09-12T02:34:12.060Z,101139.47
2022-09-12T02:36:28.325Z,101128.16
2022-09-12T02:38:44.674Z,101117.75
2022-09-12T02:40:47.230Z,101115.13
2022-09-12T02:42:49.831Z,101112.53
2022-09-12T02:44:55.570Z,101109.03
2022-09-12T02:47:04.745Z,101102.09
2022-09-12T02:49:09.358Z,101097.72
2022-09-12T02:51:12.175Z,101097.75
2022-09-12T02:53:14.604Z,101096.00
2022-09-12T02:55:17.629Z,101096.94
2022-09-12T02:57:23.294Z,101086.44
2022-09-12T02:59:25.842Z,101099.50
2022-09-12T03:01:29.253Z,101100.34
2022-09-12T03:03:51.351Z,101102.97
2022-09-12T03:05:54.836Z,101095.13
2022-09-12T03:08:15.142Z,101100.38
2022-09-12T03:10:28.889Z,101100.38
2022-09-12T03:12:38.179Z,101103.88
2022-09-12T03:15:01.728Z,101089.97
2022-09-12T03:17:09.515Z,101089.03
2022-09-12T03:19:22.071Z,101093.44
2022-09-12T03:21:31.687Z,101097.75
2022-09-12T03:23:33.966Z,101096.88
2022-09-12T03:27:52.856Z,101088.19
2022-09-12T03:31:59.209Z,101091.66
2022-09-12T03:34:01.384Z,101084.75
2022-09-12T03:36:03.772Z,101086.44
2022-09-12T03:38:08.173Z,101092.53
2022-09-12T03:40:10.995Z,101089.06
2022-09-12T03:42:12.815Z,101090.75
2022-09-12T03:44:14.947Z,101089.00
2022-09-12T03:46:17.051Z,101082.94
2022-09-12T03:48:19.047Z,101089.88
2022-09-12T03:50:21.141Z,101080.28
2022-09-12T03:54:25.507Z,101070.75
2022-09-12T03:56:27.553Z,101068.97
2022-09-12T03:58:31.640Z,101076.00
2022-09-12T04:00:33.780Z,101071.66
2022-09-12T04:02:36.229Z,101069.91
2022-09-12T04:06:40.132Z,101065.50
2022-09-12T04:08:43.830Z,101062.03
2022-09-12T04:10:46.979Z,101056.88
2022-09-12T04:12:49.197Z,101056.84
2022-09-12T04:14:51.228Z,101055.16
2022-09-12T04:16:53.087Z,101049.00
2022-09-12T04:18:55.189Z,101056.88
2022-09-12T04:20:57.978Z,101044.72
2022-09-12T04:22:59.755Z,101046.47
2022-09-12T04:25:01.631Z,101043.84
2022-09-12T04:27:07.254Z,101050.81
2022-09-12T04:29:12.448Z,101043.84
2022-09-12T04:31:18.281Z,101042.16
2022-09-12T04:33:20.250Z,101046.53
2022-09-12T04:35:22.328Z,101043.00
2022-09-12T04:37:24.716Z,101043.88
2022-09-12T04:39:27.030Z,101042.13
2022-09-12T04:41:31.589Z,101037.84
2022-09-12T04:43:33.612Z,101038.78
2022-09-12T04:45:35.664Z,101048.25
2022-09-12T04:47:37.648Z,101036.97
2022-09-12T04:49:39.741Z,101040.50
2022-09-12T04:53:43.968Z,101043.13
2022-09-12T04:55:46.401Z,101045.72
2022-09-12T04:57:48.505Z,101036.13
2022-09-12T05:01:52.526Z,101040.53
2022-09-12T05:03:55.257Z,101041.41
2022-09-12T05:05:57.302Z,101043.19
2022-09-12T05:10:01.236Z,101053.59
2022-09-12T05:12:04.898Z,101051.88
2022-09-12T05:18:13.204Z,101039.69
2022-09-12T05:20:15.229Z,101044.91
2022-09-12T05:22:17.044Z,101043.16
2022-09-12T05:24:18.984Z,101045.75
2022-09-12T05:26:21.881Z,101049.22
2022-09-12T05:28:25.793Z,101048.34
2022-09-12T05:30:28.060Z,101040.53
2022-09-12T05:34:34.267Z,101041.44
2022-09-12T05:36:37.757Z,101053.59
2022-09-12T05:38:40.235Z,101047.47
2022-09-12T05:40:42.256Z,101044.03
2022-09-12T05:42:44.188Z,101050.09
2022-09-12T05:44:45.806Z,101039.66
2022-09-12T05:46:51.066Z,101052.69
2022-09-12T05:48:56.499Z,101056.19
2022-09-12T05:51:02.934Z,101056.19
2022-09-12T05:53:05.224Z,101057.91
2022-09-12T05:55:07.659Z,101053.56
2022-09-12T05:57:09.509Z,101051.84
2022-09-12T05:59:13.510Z,101058.78
2022-09-12T06:01:18.173Z,101060.53
2022-09-12T06:03:20.448Z,101058.78
2022-09-12T06:05:22.432Z,101059.63
2022-09-12T06:07:24.346Z,101058.78
2022-09-12T06:09:26.270Z,101059.66
2022-09-12T06:11:31.244Z,101054.50
2022-09-12T06:15:37.685Z,101065.72
2022-09-12T06:17:39.534Z,101058.72
2022-09-12T06:21:43.173Z,101069.09
2022-09-12T06:23:46.423Z,101066.50
2022-09-12T06:25:50.415Z,101066.44
2022-09-12T06:27:52.345Z,101065.59
2022-09-12T06:29:54.259Z,101066.44
2022-09-12T06:31:56.185Z,101071.66
2022-09-12T06:34:01.317Z,101066.44
2022-09-12T06:36:12.583Z,101064.69
2022-09-12T06:38:14.736Z,101068.13
2022-09-12T06:40:16.762Z,101069.84
2022-09-12T06:42:20.184Z,101060.28
2022-09-12T06:44:22.925Z,101058.50
2022-09-12T06:46:25.785Z,101067.19
2022-09-12T06:48:27.915Z,101071.50
2022-09-12T06:50:29.756Z,101064.53
2022-09-12T06:52:31.534Z,101071.53
2022-09-12T06:54:33.475Z,101066.31
2022-09-12T06:56:35.235Z,101067.16
2022-09-12T06:58:37.321Z,101079.25
2022-09-12T07:00:39.784Z,101078.38
2022-09-12T07:02:41.904Z,101074.00
2022-09-12T07:04:43.705Z,101064.44
2022-09-12T07:06:45.841Z,101065.28
2022-09-12T07:08:48.731Z,101064.34
2022-09-12T07:10:50.899Z,101063.53
2022-09-12T07:12:53.032Z,101055.66
2022-09-12T07:14:55.150Z,101053.00
2022-09-12T07:16:57.235Z,101050.44
2022-09-12T07:19:01.620Z,101054.72
2022-09-12T07:21:04.533Z,101057.34
2022-09-12T07:25:08.229Z,101061.69
2022-09-12T07:27:10.351Z,101065.09
2022-09-12T07:31:38.425Z,101071.13
2022-09-12T07:33:41.310Z,101070.22
2022-09-12T07:35:43.207Z,101065.84
2022-09-12T07:37:45.167Z,101067.66
2022-09-12T07:39:47.174Z,101061.44
2022-09-12T07:41:49.650Z,101071.03
2022-09-12T07:43:58.346Z,101064.91
2022-09-12T07:45:59.970Z,101073.56
2022-09-12T07:48:02.132Z,101079.63
2022-09-12T07:50:04.152Z,101076.09
2022-09-12T07:52:05.842Z,101069.97
2022-09-12T07:54:09.335Z,101076.03
2022-09-12T07:56:12.646Z,101071.66
2022-09-12T07:58:14.239Z,101077.69
2022-09-12T08:00:16.659Z,101072.44
2022-09-12T08:02:18.364Z,101070.75
2022-09-12T08:04:20.017Z,101076.88
2022-09-12T08:06:25.649Z,101077.72
2022-09-12T08:08:27.242Z,101076.81
2022-09-12T08:10:28.840Z,101065.44
2022-09-12T08:12:32.411Z,101061.19
2022-09-12T08:14:34.022Z,101052.44
2022-09-12T08:16:35.824Z,101054.09
2022-09-12T08:18:38.383Z,101050.66
2022-09-12T08:20:40.030Z,101046.31
2022-09-12T08:22:42.389Z,101042.72
2022-09-12T08:24:44.525Z,101051.38
2022-09-12T08:26:47.493Z,101040.88
2022-09-12T08:28:49.903Z,101046.06
2022-09-12T08:30:53.016Z,101046.03
2022-09-12T08:32:55.000Z,101044.19
2022-09-12T08:34:56.656Z,101039.84
2022-09-12T08:36:58.550Z,101048.47
2022-09-12T08:39:08.572Z,101047.50
2022-09-12T08:41:18.957Z,101047.53
2022-09-12T08:43:56.059Z,101044.88
2022-09-12T08:46:06.925Z,101051.72
2022-09-12T08:48:11.272Z,101061.31
2022-09-12T08:50:20.395Z,101062.06
2022-09-12T08:52:44.091Z,101064.75
2022-09-12T08:54:46.099Z,101055.09
2022-09-12T08:56:48.779Z,101066.38
2022-09-12T08:58:51.585Z,101058.56
2022-09-12T09:01:10.093Z,101055.84
2022-09-12T09:03:32.765Z,101053.19
2022-09-12T09:05:58.351Z,101059.28
2022-09-12T09:08:18.867Z,101050.59
2022-09-12T09:10:20.488Z,101048.75
2022-09-12T09:12:46.747Z,101054.78
2022-09-12T09:15:03.625Z,101045.16
2022-09-12T09:17:12.940Z,101028.50
2022-09-12T09:19:21.618Z,101034.47
2022-09-12T09:21:41.495Z,101035.31
2022-09-12T09:23:48.065Z,101034.31
2022-09-12T09:26:08.388Z,101030.53
2022-09-12T09:28:37.226Z,101035.66
2022-09-12T09:30:42.433Z,101031.22
2022-09-12T09:32:49.543Z,101046.03
2022-09-12T09:34:52.502Z,101052.91
2022-09-12T09:37:09.123Z,101046.03
2022-09-12T09:39:17.145Z,101037.22
2022-09-12T09:41:36.317Z,101031.03
2022-09-12T09:43:39.197Z,101028.41
2022-09-12T09:45:44.562Z,101025.63
2022-09-12T09:47:55.291Z,101016.97
2022-09-12T09:49:57.687Z,101009.88
2022-09-12T09:52:03.908Z,101015.03
2022-09-12T09:54:12.627Z,101004.47
2022-09-12T09:56:33.599Z,101004.25
2022-09-12T09:58:36.737Z,100997.97
2022-09-12T10:00:39.912Z,100999.50
2022-09-12T10:02:42.427Z,100999.41
2022-09-12T10:04:57.165Z,100998.09
2022-09-12T10:07:02.027Z,100989.19
2022-09-12T10:09:13.481Z,100983.72
2022-09-12T10:11:18.230Z,100973.03
2022-09-12T10:13:28.775Z,100975.63
2022-09-12T10:15:30.959Z,100977.88
2022-09-12T10:17:51.678Z,100975.97
2022-09-12T10:20:10.526Z,100968.84
2022-09-12T10:22:20.160Z,100962.44
2022-09-12T10:24:43.708Z,100972.84
2022-09-12T10:26:56.436Z,100970.03
2022-09-12T10:29:10.821Z,100975.91
2022-09-12T10:31:29.444Z,100982.75
2022-09-12T10:33:40.395Z,100976.34
2022-09-12T10:35:50.166Z,100982.44
2022-09-12T10:37:57.023Z,100981.53
2022-09-12T10:40:00.873Z,100973.50
2022-09-12T10:42:04.354Z,100977.19
2022-09-12T10:44:10.111Z,100970.19
2022-09-12T10:46:17.835Z,100972.53
2022-09-12T10:48:33.238Z,100971.69
2022-09-12T10:50:43.148Z,100966.34
2022-09-12T10:52:45.054Z,100966.19
2022-09-12T10:54:46.826Z,100967.84
2022-09-12T10:57:21.239Z,100964.97
2022-09-12T10:59:28.843Z,100968.22
2022-09-12T11:01:36.630Z,100960.22
2022-09-12T11:03:53.638Z,100949.50
2022-09-12T11:05:58.779Z,100947.47
2022-09-12T11:08:20.157Z,100944.78
2022-09-12T11:10:40.470Z,100943.47
2022-09-12T11:13:33.989Z,100952.56
2022-09-12T11:15:41.287Z,100947.59
2022-09-12T11:17:55.339Z,100947.31
2022-09-12T11:20:33.848Z,100945.22
2022-09-12T11:22:41.613Z,100946.00
2022-09-12T11:25:06.555Z,100953.94
2022-09-12T11:27:48.049Z,100955.31
2022-09-12T11:30:04.194Z,100956.53
2022-09-12T11:32:30.750Z,100959.03
2022-09-12T11:34:40.539Z,100953.47
2022-09-12T11:37:09.858Z,100952.72
2022-09-12T11:39:15.883Z,100949.41
2022-09-12T11:41:25.456Z,100953.94
2022-09-12T11:43:45.386Z,100952.03
2022-09-12T11:45:49.405Z,100949.31
2022-09-12T11:47:58.219Z,100946.63
2022-09-12T11:50:04.145Z,100931.34
2022-09-12T11:52:22.072Z,100925.81
2022-09-12T11:54:54.278Z,100934.53
2022-09-12T11:57:06.606Z,100927.53
2022-09-12T11:59:45.027Z,100937.63
2022-09-12T12:01:51.363Z,100932.13
2022-09-12T12:03:55.829Z,100932.69
2022-09-12T12:06:26.795Z,100923.06
2022-09-12T12:08:32.031Z,100932.69
2022-09-12T12:10:38.661Z,100919.09
2022-09-12T12:12:42.783Z,100928.91
2022-09-12T12:14:50.053Z,100924.75
2022-09-12T12:16:52.372Z,100922.91
2022-09-12T12:19:14.843Z,100925.66
2022-09-12T12:21:38.093Z,100927.72
2022-09-12T12:23:39.999Z,100908.13
2022-09-12T12:25:53.667Z,100922.09
2022-09-12T12:28:01.996Z,100918.19
2022-09-12T12:30:04.168Z,100921.28
2022-09-12T12:32:06.149Z,100920.91
2022-09-12T12:34:23.686Z,100913.19
2022-09-12T12:36:40.508Z,100911.66
2022-09-12T12:38:42.409Z,100911.81
2022-09-12T12:40:44.169Z,100909.44
2022-09-12T12:42:45.817Z,100898.59
2022-09-12T12:44:51.526Z,100898.03
2022-09-12T12:47:47.854Z,100899.88
2022-09-12T12:50:13.541Z,100893.13
2022-09-12T12:52:19.793Z,100895.53
2022-09-12T12:54:40.114Z,100892.34
2022-09-12T12:56:44.242Z,100899.47
2022-09-12T12:58:46.335Z,100897.88
2022-09-12T13:01:02.533Z,100885.38
2022-09-12T13:03:07.030Z,100884.03
2022-09-12T13:05:22.941Z,100881.13
2022-09-12T13:07:51.533Z,100878.47
2022-09-12T13:09:55.090Z,100876.22
2022-09-12T13:12:09.634Z,100871.81
2022-09-12T13:14:47.492Z,100870.78
2022-09-12T13:16:59.309Z,100869.53
2022-09-12T13:19:17.457Z,100873.34
2022-09-12T13:21:21.719Z,100864.88
2022-09-12T13:23:29.684Z,100862.28
2022-09-12T13:25:37.018Z,100871.03
2022-09-12T13:27:56.557Z,100874.66
2022-09-12T13:30:17.939Z,100868.53
2022-09-12T13:32:20.188Z,100876.81
2022-09-12T13:34:35.430Z,100879.16
2022-09-12T13:36:59.070Z,100884.44
2022-09-12T13:39:18.260Z,100896.03
2022-09-12T13:41:57.961Z,100883.66
2022-09-12T13:44:02.878Z,100881.69
2022-09-12T13:46:06.850Z,100885.28
2022-09-12T13:48:18.648Z,100879.81
2022-09-12T13:50:24.605Z,100880.59
2022-09-12T13:52:30.855Z,100875.63
2022-09-12T13:54:38.088Z,100874.69
2022-09-12T13:56:48.778Z,100869.00
2022-09-12T13:59:01.742Z,100875.97
2022-09-12T14:01:16.249Z,100874.31
2022-09-12T14:03:49.281Z,100873.75
2022-09-12T14:05:57.657Z,100865.78
2022-09-12T14:08:04.699Z,100856.72
2022-09-12T14:10:07.711Z,100849.97
2022-09-12T14:12:43.979Z,100850.66
2022-09-12T14:14:50.059Z,100852.53
2022-09-12T14:16:54.993Z,100848.25
2022-09-12T14:18:57.653Z,100854.63
2022-09-12T14:21:23.480Z,100845.59
2022-09-12T14:23:30.738Z,100844.91
2022-09-12T14:25:43.173Z,100840.47
2022-09-12T14:27:50.858Z,100821.94
2022-09-12T14:30:09.199Z,100817.75
2022-09-12T14:32:24.754Z,100807.78
2022-09-12T14:34:26.491Z,100819.38
2022-09-12T14:36:35.848Z,100826.94
2022-09-12T14:38:45.059Z,100816.03
2022-09-12T14:40:49.435Z,100812.56
2022-09-12T14:42:53.117Z,100815.19
2022-09-12T14:45:06.163Z,100816.63
2022-09-12T14:47:14.585Z,100816.63
2022-09-12T14:49:21.534Z,100818.34
2022-09-12T14:51:31.309Z,100820.56
2022-09-12T14:53:36.096Z,100815.00
2022-09-12T14:55:46.443Z,100820.13
2022-09-12T14:57:50.129Z,100819.38
2022-09-12T14:59:51.748Z,100816.13
2022-09-12T15:02:21.083Z,100809.91
2022-09-12T15:04:42.237Z,100810.66
2022-09-12T15:06:44.113Z,100807.97
2022-09-12T15:08:45.875Z,100812.53
2022-09-12T15:10:48.141Z,100815.94
2022-09-12T15:12:50.268Z,100809.81
2022-09-12T15:14:51.878Z,100814.06
2022-09-12T15:16:53.508Z,100815.97
2022-09-12T15:18:55.199Z,100820.25
2022-09-12T15:21:02.833Z,100825.59
2022-09-12T15:23:09.538Z,100822.72
2022-09-12T15:25:13.961Z,100839.91
2022-09-12T15:27:21.307Z,100839.28
2022-09-12T15:29:23.772Z,100830.72
2022-09-12T15:31:28.093Z,100834.91
2022-09-12T15:33:30.490Z,100841.53
2022-09-12T15:35:34.492Z,100837.75
2022-09-12T15:37:37.312Z,100832.88
2022-09-12T15:39:40.085Z,100836.50
2022-09-12T15:41:45.298Z,100834.63
2022-09-12T15:43:48.871Z,100833.91
2022-09-12T15:45:52.212Z,100830.59
2022-09-12T15:47:54.730Z,100828.28
2022-09-12T15:49:57.414Z,100823.25
2022-09-12T15:52:01.711Z,100816.00
2022-09-12T15:54:06.134Z,100814.28
2022-09-12T15:56:08.735Z,100813.66
2022-09-12T15:58:11.582Z,100808.78
2022-09-12T16:00:19.038Z,100806.06
2022-09-12T16:02:21.711Z,100804.59
2022-09-12T16:04:26.592Z,100802.16
2022-09-12T16:06:34.977Z,100799.59
2022-09-12T16:08:39.487Z,100799.69
2022-09-12T16:10:44.419Z,100795.91
2022-09-12T16:12:47.550Z,100800.38
2022-09-12T16:14:50.139Z,100797.03
2022-09-12T16:16:58.234Z,100797.44
2022-09-12T16:19:00.638Z,100791.97
2022-09-12T16:21:03.105Z,100787.84
2022-09-12T16:23:05.408Z,100788.41
2022-09-12T16:25:08.698Z,100790.13
2022-09-12T16:27:11.385Z,100783.06
2022-09-12T16:29:14.990Z,100780.09
2022-09-12T16:31:17.737Z,100790.25
2022-09-12T16:33:20.100Z,100793.69
2022-09-12T16:35:23.120Z,100788.53
2022-09-12T16:37:25.496Z,100787.81
2022-09-12T16:39:27.984Z,100794.25
2022-09-12T16:41:30.468Z,100797.81
2022-09-12T16:43:34.662Z,100794.19
2022-09-12T16:45:37.179Z,100791.47
2022-09-12T16:47:40.146Z,100793.97
2022-09-12T16:49:42.855Z,100794.84
2022-09-12T16:51:48.195Z,100792.28
2022-09-12T16:53:51.515Z,100792.53
2022-09-12T16:55:54.013Z,100784.75
2022-09-12T16:57:56.754Z,100782.38
2022-09-12T16:59:59.338Z,100786.09
2022-09-12T17:02:03.854Z,100791.69
2022-09-12T17:04:07.082Z,100791.94
2022-09-12T17:06:12.483Z,100781.81
2022-09-12T17:08:15.211Z,100781.97
2022-09-12T17:10:18.967Z,100782.81
2022-09-12T17:12:21.483Z,100783.81
2022-09-12T17:14:24.724Z,100777.03
2022-09-12T17:16:28.895Z,100779.75
2022-09-12T17:18:31.729Z,100774.81
2022-09-12T17:20:36.657Z,100776.50
2022-09-12T17:22:39.750Z,100769.66
2022-09-12T17:24:42.427Z,100767.97
2022-09-12T17:26:45.281Z,100764.75
2022-09-12T17:28:47.671Z,100755.94
2022-09-12T17:30:58.178Z,100758.63
2022-09-12T17:33:05.159Z,100760.66
2022-09-12T17:35:17.858Z,100761.44
2022-09-12T17:37:22.082Z,100757.25
2022-09-12T17:39:24.724Z,100760.88
2022-09-12T17:41:30.021Z,100766.28
2022-09-12T17:43:32.988Z,100757.59
2022-09-12T17:45:36.038Z,100758.31
2022-09-12T17:47:38.231Z,100755.94
2022-09-12T17:49:42.030Z,100770.13
2022-09-12T17:51:45.925Z,100764.81
2022-09-12T17:53:49.965Z,100762.19
2022-09-12T17:55:54.301Z,100761.22
2022-09-12T17:57:56.974Z,100764.09
2022-09-12T18:00:00.649Z,100776.47
2022-09-12T18:02:12.801Z,100781.84
2022-09-12T18:04:16.002Z,100794.19
2022-09-12T18:06:18.477Z,100794.44
2022-09-12T18:08:22.781Z,100798.00
2022-09-12T18:10:28.438Z,100797.13
2022-09-12T18:12:31.036Z,100789.13
2022-09-12T18:14:34.742Z,100794.50
2022-09-12T18:16:37.283Z,100791.94
2022-09-12T18:18:40.306Z,100796.28
2022-09-12T18:20:51.462Z,100792.78
2022-09-12T18:22:54.040Z,100809.44
2022-09-12T18:24:56.650Z,100811.28
2022-09-12T18:26:59.866Z,100813.97
2022-09-12T18:29:02.602Z,100817.56
2022-09-12T18:31:10.423Z,100823.78
2022-09-12T18:33:12.133Z,100825.56
2022-09-12T18:35:14.879Z,100831.06
2022-09-12T18:37:18.705Z,100828.31
2022-09-12T18:39:26.708Z,100832.84
2022-09-12T18:41:30.553Z,100839.91
2022-09-12T18:43:38.433Z,100844.25
2022-09-12T18:45:40.951Z,100850.56
2022-09-12T18:47:43.758Z,100853.41
2022-09-12T18:49:46.278Z,100855.13
2022-09-12T18:51:48.742Z,100858.75
2022-09-12T18:53:56.632Z,100872.66
2022-09-12T18:56:04.184Z,100869.31
2022-09-12T18:58:06.702Z,100879.88
2022-09-12T19:00:12.471Z,100871.94
2022-09-12T19:02:16.822Z,100881.72
2022-09-12T19:04:19.705Z,100870.28
2022-09-12T19:06:25.631Z,100876.69
2022-09-12T19:08:28.172Z,100870.63
2022-09-12T19:10:31.442Z,100877.81
2022-09-12T19:12:33.913Z,100879.75
2022-09-12T19:14:37.723Z,100869.22
2022-09-12T19:16:41.462Z,100868.41
2022-09-12T19:18:44.154Z,100870.31
2022-09-12T19:20:52.573Z,100867.78
2022-09-12T19:22:55.405Z,100862.50
2022-09-12T19:24:58.182Z,100871.28
2022-09-12T19:27:00.999Z,100870.59
2022-09-12T19:29:04.414Z,100871.41
2022-09-12T19:31:10.105Z,100873.38
2022-09-12T19:33:12.880Z,100867.16
2022-09-12T19:35:15.895Z,100869.78
2022-09-12T19:37:19.155Z,100868.06
2022-09-12T19:39:22.001Z,100863.84
2022-09-12T19:41:24.676Z,100862.06
2022-09-12T19:43:27.467Z,100868.19
2022-09-12T19:45:30.146Z,100868.13
2022-09-12T19:47:33.023Z,100862.88
2022-09-12T19:49:35.756Z,100856.81
2022-09-12T19:51:38.598Z,100855.97
2022-09-12T19:53:42.879Z,100854.19
2022-09-12T19:55:46.490Z,100853.38
2022-09-12T19:57:49.617Z,100848.13
2022-09-12T19:59:52.439Z,100850.91
2022-09-12T20:01:55.407Z,100845.69
2022-09-12T20:03:59.256Z,100837.81
2022-09-12T20:06:06.248Z,100844.75
2022-09-12T20:08:09.111Z,100841.28
2022-09-12T20:10:11.685Z,100835.16
2022-09-12T20:12:15.396Z,100829.13
2022-09-12T20:14:18.014Z,100827.31
2022-09-12T20:16:29.393Z,100828.22
2022-09-12T20:18:32.422Z,100816.91
2022-09-12T20:20:35.089Z,100815.09
2022-09-12T20:22:40.193Z,100821.19
2022-09-12T20:24:43.037Z,100813.38
2022-09-12T20:26:45.801Z,100816.84
2022-09-12T20:28:48.637Z,100821.25
2022-09-12T20:30:51.350Z,100809.94
2022-09-12T20:32:53.732Z,100813.47
2022-09-12T20:34:56.570Z,100810.88
2022-09-12T20:36:58.515Z,100809.19
2022-09-12T20:39:02.860Z,100808.34
2022-09-12T20:41:07.976Z,100815.34
2022-09-12T20:43:09.932Z,100813.59
2022-09-12T20:45:14.173Z,100813.59
2022-09-12T20:47:16.444Z,100816.28
2022-09-12T20:49:19.806Z,100822.38
2022-09-12T20:51:22.935Z,100814.56
2022-09-12T20:53:24.812Z,100813.69
2022-09-12T20:55:26.585Z,100811.13
2022-09-12T20:57:29.895Z,100813.78
2022-09-12T20:59:31.922Z,100816.47
2022-09-12T21:01:33.898Z,100818.25
2022-09-12T21:03:39.643Z,100821.84
2022-09-12T21:05:45.472Z,100814.06
2022-09-12T21:07:47.164Z,100822.84
2022-09-12T21:09:49.145Z,100824.66
2022-09-12T21:11:50.800Z,100829.13
2022-09-12T21:13:53.676Z,100827.41
2022-09-12T21:16:03.197Z,100822.19
2022-09-12T21:18:06.658Z,100821.38
2022-09-12T21:20:11.378Z,100825.81
2022-09-12T21:22:13.323Z,100835.47
2022-09-12T21:24:15.262Z,100819.78
2022-09-12T21:26:18.578Z,100829.41
2022-09-12T21:28:21.487Z,100827.69
2022-09-12T21:30:23.270Z,100835.56
2022-09-12T21:32:25.659Z,100827.75
2022-09-12T21:34:27.280Z,100829.50
2022-09-12T21:36:28.942Z,100836.53
2022-09-12T21:38:31.580Z,100831.28
2022-09-12T21:40:33.468Z,100826.88
2022-09-12T21:42:35.057Z,100824.25
2022-09-12T21:44:36.807Z,100831.28
2022-09-12T21:46:40.486Z,100823.44
2022-09-12T21:48:43.544Z,100816.50
2022-09-12T21:50:50.666Z,100811.25
2022-09-12T21:52:53.305Z,100817.34
2022-09-12T21:54:57.045Z,100814.78
2022-09-12T21:56:58.988Z,100814.78
2022-09-12T21:59:01.117Z,100804.28
2022-09-12T22:01:06.341Z,100814.78
2022-09-12T22:03:10.569Z,100820.00
2022-09-12T22:05:12.399Z,100817.41
2022-09-12T22:07:19.439Z,100817.41
2022-09-12T22:09:21.263Z,100818.31
2022-09-12T22:11:24.221Z,100821.78
2022-09-12T22:13:26.532Z,100815.69
2022-09-12T22:15:43.838Z,100811.41
2022-09-12T22:17:46.117Z,100807.06
2022-09-12T22:19:48.457Z,100806.16
2022-09-12T22:22:09.678Z,100811.50
2022-09-12T22:24:30.267Z,100813.31
2022-09-12T22:26:39.620Z,100811.59
2022-09-12T22:28:43.108Z,100808.97
2022-09-12T22:30:48.800Z,100810.78
2022-09-12T22:32:52.120Z,100809.06
2022-09-12T22:34:54.409Z,100810.84
2022-09-12T22:36:57.552Z,100811.75
2022-09-12T22:39:00.415Z,100817.03
2022-09-12T22:41:07.207Z,100824.03
2022-09-12T22:43:09.514Z,100828.44
2022-09-12T22:45:12.369Z,100836.28
2022-09-12T22:47:14.731Z,100838.97
2022-09-12T22:49:16.518Z,100843.34
2022-09-12T22:51:19.566Z,100839.88
2022-09-12T22:53:21.697Z,100832.09
2022-09-12T22:55:23.861Z,100837.34
2022-09-12T22:57:26.027Z,100833.00
2022-09-12T22:59:28.119Z,100830.41
2022-09-12T23:01:32.248Z,100834.78
2022-09-12T23:03:34.639Z,100833.06
2022-09-12T23:05:37.510Z,100828.72
2022-09-12T23:07:44.375Z,100827.91
2022-09-12T23:09:46.555Z,100828.81
2022-09-12T23:11:48.324Z,100828.88
2022-09-12T23:13:51.269Z,100837.63
2022-09-12T23:16:05.313Z,100845.56
2022-09-12T23:18:07.529Z,100844.69
2022-09-12T23:20:09.526Z,100842.13
2022-09-12T23:22:11.658Z,100845.78
2022-09-12T23:24:13.823Z,100842.16
2022-09-12T23:26:19.403Z,100851.78
2022-09-12T23:28:21.776Z,100852.66
2022-09-12T23:30:23.822Z,100856.19
2022-09-12T23:32:25.832Z,100858.84
2022-09-12T23:34:27.919Z,100852.75
2022-09-12T23:36:30.678Z,100853.63
2022-09-12T23:38:34.158Z,100851.03
2022-09-12T23:40:36.394Z,100841.50
2022-09-12T23:42:38.385Z,100845.88
2022-09-12T23:44:40.564Z,100840.63
2022-09-12T23:46:42.664Z,100837.09
2022-09-12T23:48:45.303Z,100845.88
2022-09-12T23:50:48.593Z,100838.00
2022-09-12T23:52:50.557Z,100840.63
2022-09-12T23:54:52.486Z,100838.97
2022-09-12T23:56:54.537Z,100831.09
2022-09-12T23:58:56.530Z,100835.44
